Time;durP1;ratioP1;P1;durP2;ratioP2;P2;SDS_P1;SDS_P2;PMS_P1;PMS_P2;Temp;Humidity;BMP_temperature;BMP_pressure;BME280_temperature;BME280_humidity;BME280_pressure;Samples;Min_cycle;Max_cycle;Signal;HPM_P1;HPM_P2
2021/05/07 00:00:29;;;;;;;;;;;;;;;20.86;65.87;100884.47;5130856;27;1325;-63
2021/05/07 00:03:13;;;;;;;;;;;;;;;20.86;65.81;100881.81;5130946;27;1059;-63
2021/05/07 00:05:58;;;;;;;;;;;;;;;20.85;65.95;100880.16;5130459;27;1358;-62
2021/05/07 00:08:43;;;;;;;;;;;;;;;20.86;65.81;100868.59;5130701;27;1088;-63
2021/05/07 00:11:31;;;;;;;;;;;;;;;20.85;65.89;100864.25;5130493;27;1399;-63
2021/05/07 00:14:15;;;;;;;;;;;;;;;20.86;65.85;100863.28;5130805;27;1053;-62
2021/05/07 00:17:00;;;;;;;;;;;;;;;20.85;65.91;100861.63;5130550;27;1368;-62
2021/05/07 00:19:45;;;;;;;;;;;;;;;20.85;66.17;100851.03;5137100;27;1968;-62
2021/05/07 00:22:30;;;;;;;;;;;;;;;20.86;66.16;100857.13;5130122;27;729;-62
2021/05/07 00:25:35;;;;;;;;;;;;;;;20.85;66.06;100851.03;5130107;27;1390;-61
2021/05/07 00:28:20;;;;;;;;;;;;;;;20.85;66.04;100851.03;5146183;27;1083;-63
2021/05/07 00:31:05;;;;;;;;;;;;;;;20.85;66.25;100844.88;5151268;27;1366;-62
2021/05/07 00:33:50;;;;;;;;;;;;;;;20.84;65.89;100840.50;5151228;27;1133;-62
2021/05/07 00:36:34;;;;;;;;;;;;;;;20.85;66.08;100845.72;5150812;27;1360;-61
2021/05/07 00:39:19;;;;;;;;;;;;;;;20.85;66.14;100845.72;5142097;27;1963;-62
2021/05/07 00:42:05;;;;;;;;;;;;;;;20.84;65.98;100841.38;5129825;27;686;-62
2021/05/07 00:44:50;;;;;;;;;;;;;;;20.84;66.15;100836.06;5128990;27;1366;-62
2021/05/07 00:47:41;;;;;;;;;;;;;;;20.84;66.32;100828.13;5129824;27;1519;-62
2021/05/07 00:50:31;;;;;;;;;;;;;;;20.84;66.18;100822.84;5130092;27;1215;-62
2021/05/07 00:53:16;;;;;;;;;;;;;;;20.84;66.25;100824.63;5129873;27;988;-64
2021/05/07 00:56:01;;;;;;;;;;;;;;;20.84;66.39;100821.97;5130045;27;1378;-62
2021/05/07 00:58:46;;;;;;;;;;;;;;;20.84;65.91;100825.47;5130198;27;1967;-61
2021/05/07 01:01:31;;;;;;;;;;;;;;;20.84;66.10;100821.97;5129770;27;1370;-62
2021/05/07 01:04:16;;;;;;;;;;;;;;;20.84;66.23;100821.97;5130210;27;1124;-63
2021/05/07 01:07:01;;;;;;;;;;;;;;;20.83;66.03;100814.97;5114383;28;711;-63
2021/05/07 01:09:49;;;;;;;;;;;;;;;20.83;65.97;100821.13;5114332;28;1263;-63
2021/05/07 01:12:35;;;;;;;;;;;;;;;20.82;66.05;100814.16;5129939;28;651;-63
2021/05/07 01:15:21;;;;;;;;;;;;;;;20.82;65.91;100808.00;5129802;28;1284;-62
2021/05/07 01:18:06;;;;;;;;;;;;;;;20.83;66.33;100805.25;5129533;28;2229;-62
2021/05/07 01:20:51;;;;;;;;;;;;;;;20.83;66.11;100804.38;5129549;28;1263;-62
2021/05/07 01:23:36;;;;;;;;;;;;;;;20.82;66.17;100800.91;5129587;28;971;-63
2021/05/07 01:26:21;;;;;;;;;;;;;;;20.83;66.35;100812.31;5129889;28;1287;-63
2021/05/07 01:29:10;;;;;;;;;;;;;;;20.82;66.00;100806.22;5130104;28;1139;-63
2021/05/07 01:31:56;;;;;;;;;;;;;;;20.82;66.17;100803.56;5129511;28;1279;-63
2021/05/07 01:34:41;;;;;;;;;;;;;;;20.82;66.20;100795.63;5129396;28;1268;-62
2021/05/07 01:37:26;;;;;;;;;;;;;;;20.81;66.33;100791.25;5132120;27;1466;-62
2021/05/07 01:40:21;;;;;;;;;;;;;;;20.82;66.23;100792.13;5133381;27;1385;-61
2021/05/07 01:43:06;;;;;;;;;;;;;;;20.82;66.10;100792.13;5145272;27;958;-62
2021/05/07 01:45:52;;;;;;;;;;;;;;;20.82;66.33;100792.97;5155105;27;1267;-62
2021/05/07 01:48:37;;;;;;;;;;;;;;;20.81;66.23;100801.84;5154145;27;1655;-61
2021/05/07 01:51:23;;;;;;;;;;;;;;;20.82;66.12;100800.06;5153336;27;1271;-63
2021/05/07 01:54:07;;;;;;;;;;;;;;;20.82;66.20;100802.72;5154503;27;1047;-64
2021/05/07 01:56:52;;;;;;;;;;;;;;;20.82;66.28;100792.97;5153869;27;1160;-62
2021/05/07 01:59:37;;;;;;;;;;;;;;;20.81;66.12;100796.56;5154031;27;1902;-65
2021/05/07 02:02:22;;;;;;;;;;;;;;;20.81;66.20;100785.13;5154179;27;687;-62
2021/05/07 02:05:09;;;;;;;;;;;;;;;20.81;66.25;100787.75;5154079;27;1239;-64
2021/05/07 02:07:54;;;;;;;;;;;;;;;20.81;66.28;100787.75;5153722;27;924;-63
2021/05/07 02:10:40;;;;;;;;;;;;;;;20.81;66.00;100791.25;5153696;27;1259;-64
2021/05/07 02:13:24;;;;;;;;;;;;;;;20.81;66.28;100779.81;5154078;27;1050;-64
2021/05/07 02:16:11;;;;;;;;;;;;;;;20.81;66.29;100779.81;5138886;27;1319;-62
2021/05/07 02:18:55;;;;;;;;;;;;;;;20.81;66.30;100772.72;5132930;27;1980;-63
2021/05/07 02:21:40;;;;;;;;;;;;;;;20.80;66.45;100771.03;5132457;27;1287;-62
2021/05/07 02:24:25;;;;;;;;;;;;;;;20.80;66.17;100763.09;5117433;27;1157;-63
2021/05/07 02:27:10;;;;;;;;;;;;;;;20.80;66.10;100771.03;5133207;27;616;-62
2021/05/07 02:29:55;;;;;;;;;;;;;;;20.80;66.32;100770.16;5133007;27;1236;-63
2021/05/07 02:32:39;;;;;;;;;;;;;;;20.80;66.05;100776.31;5132840;27;690;-63
2021/05/07 02:35:24;;;;;;;;;;;;;;;20.79;66.14;100766.69;5132403;27;1347;-62
2021/05/07 02:38:09;;;;;;;;;;;;;;;20.80;65.94;100773.66;5132677;27;1905;-62
2021/05/07 02:40:54;;;;;;;;;;;;;;;20.80;66.25;100778.09;5132335;27;1305;-63
2021/05/07 02:43:39;;;;;;;;;;;;;;;20.79;66.01;100766.69;5132332;27;1079;-63
2021/05/07 02:46:23;;;;;;;;;;;;;;;20.79;66.05;100769.34;5131494;27;1347;-63
2021/05/07 02:49:08;;;;;;;;;;;;;;;20.79;66.22;100774.63;5131472;27;1146;-63
2021/05/07 02:51:53;;;;;;;;;;;;;;;20.79;66.29;100772.00;5131991;27;1363;-63
2021/05/07 02:54:37;;;;;;;;;;;;;;;20.79;65.92;100771.13;5132444;27;1348;-63
2021/05/07 02:57:22;;;;;;;;;;;;;;;20.71;66.29;100761.88;5132310;27;639;-63
2021/05/07 03:00:07;;;;;;;;;;;;;;;20.78;66.13;100774.72;5132079;27;1914;-63
2021/05/07 03:02:52;;;;;;;;;;;;;;;20.77;66.21;100771.22;5132204;27;1064;-63
2021/05/07 03:05:37;;;;;;;;;;;;;;;20.78;66.06;100774.72;5132205;27;1224;-64
2021/05/07 03:08:22;;;;;;;;;;;;;;;20.79;66.23;100781.72;5132132;27;1413;-63
2021/05/07 03:11:07;;;;;;;;;;;;;;;20.78;66.07;100772.06;5131816;27;1299;-63
2021/05/07 03:13:53;;;;;;;;;;;;;;;20.78;65.89;100775.56;5131850;27;1043;-63
2021/05/07 03:16:39;;;;;;;;;;;;;;;20.77;66.32;100768.56;5115869;27;1330;-63
2021/05/07 03:19:24;;;;;;;;;;;;;;;20.77;66.15;100768.56;5132316;27;1978;-60
2021/05/07 03:22:09;;;;;;;;;;;;;;;20.78;66.05;100774.72;5131988;27;647;-63
2021/05/07 03:24:54;;;;;;;;;;;;;;;20.77;66.18;100776.50;5131455;27;1299;-63
2021/05/07 03:27:38;;;;;;;;;;;;;;;20.77;66.24;100776.50;5131647;27;702;-62
2021/05/07 03:30:23;;;;;;;;;;;;;;;20.77;66.23;100773.88;5131467;27;1275;-63
2021/05/07 03:33:08;;;;;;;;;;;;;;;20.78;66.21;100769.44;5131578;27;1051;-63
2021/05/07 03:35:53;;;;;;;;;;;;;;;20.77;66.21;100771.22;5131206;27;1369;-63
2021/05/07 03:38:38;;;;;;;;;;;;;;;20.76;65.99;100771.34;5131590;27;1910;-63
2021/05/07 03:41:23;;;;;;;;;;;;;;;20.76;66.04;100781.94;5131046;27;1275;-63
2021/05/07 03:44:23;;;;;;;;;;;;;;;20.76;66.12;100782.78;5131310;27;1098;-63
2021/05/07 03:47:11;;;;;;;;;;;;;;;20.77;66.04;100786.25;5115502;27;1544;-63
2021/05/07 03:49:56;;;;;;;;;;;;;;;20.75;66.27;100781.06;5131638;27;1330;-64
2021/05/07 03:52:41;;;;;;;;;;;;;;;20.75;66.27;100777.56;5130805;27;1235;-64
2021/05/07 03:55:26;;;;;;;;;;;;;;;20.75;66.07;100764.34;5130813;27;1263;-63
2021/05/07 03:58:11;;;;;;;;;;;;;;;20.75;66.11;100769.63;5131195;27;1977;-63
2021/05/07 04:00:55;;;;;;;;;;;;;;;20.74;66.43;100787.31;5130169;27;1263;-64
2021/05/07 04:03:40;;;;;;;;;;;;;;;20.74;66.30;100789.94;5131087;27;919;-64
2021/05/07 04:06:26;;;;;;;;;;;;;;;20.75;66.14;100786.38;5130835;27;1300;-64
2021/05/07 04:09:14;;;;;;;;;;;;;;;20.74;66.28;100787.31;5130918;27;1057;-63
2021/05/07 04:12:17;;;;;;;;;;;;;;;20.73;66.23;100789.09;5130693;27;651;-64
2021/05/07 04:15:03;;;;;;;;;;;;;;;20.74;66.37;100795.25;5130983;27;1247;-63
2021/05/07 04:17:48;;;;;;;;;;;;;;;20.73;66.31;100793.56;5130417;27;1049;-63
2021/05/07 04:20:33;;;;;;;;;;;;;;;20.73;66.42;100790.91;5130326;27;1240;-62
2021/05/07 04:23:18;;;;;;;;;;;;;;;20.73;66.28;100793.56;5130915;27;1086;-63
2021/05/07 04:26:03;;;;;;;;;;;;;;;20.73;66.46;100804.97;5130416;27;1266;-63
2021/05/07 04:28:48;;;;;;;;;;;;;;;20.73;66.42;100808.59;5114910;27;982;-64
2021/05/07 04:31:32;;;;;;;;;;;;;;;20.73;66.34;100808.59;5130175;27;1317;-63
2021/05/07 04:34:17;;;;;;;;;;;;;;;20.72;66.26;100805.09;5130950;27;958;-63
2021/05/07 04:37:02;;;;;;;;;;;;;;;20.73;66.27;100803.31;5130386;27;667;-63
2021/05/07 04:39:46;;;;;;;;;;;;;;;20.73;66.43;100808.59;5130427;27;1905;-63
2021/05/07 04:42:31;;;;;;;;;;;;;;;20.71;66.29;100801.59;5130323;27;698;-64
2021/05/07 04:45:15;;;;;;;;;;;;;;;20.71;66.36;100803.38;5130219;27;1295;-64
2021/05/07 04:48:01;;;;;;;;;;;;;;;20.72;66.44;100815.69;5129711;27;1377;-65
2021/05/07 04:50:46;;;;;;;;;;;;;;;20.79;66.81;100827.59;5126368;27;1436;-64
2021/05/07 04:53:31;;;;;;;;;;;;;;;20.76;66.73;100819.00;5128991;27;1088;-64
2021/05/07 04:56:16;;;;;;;;;;;;;;;20.74;66.51;100821.72;5128879;27;1377;-64
2021/05/07 04:59:01;;;;;;;;;;;;;;;20.75;66.69;100826.06;5129239;27;1902;-64
2021/05/07 05:01:46;;;;;;;;;;;;;;;20.75;66.63;100826.06;5129146;27;1385;-64
2021/05/07 05:04:30;;;;;;;;;;;;;;;20.75;66.39;100826.06;5130246;27;1200;-63
2021/05/07 05:07:16;;;;;;;;;;;;;;;20.74;66.58;100813.78;5129785;27;714;-64
2021/05/07 05:10:01;;;;;;;;;;;;;;;20.75;66.72;100817.28;5129453;28;1294;-63
2021/05/07 05:12:46;;;;;;;;;;;;;;;20.76;66.54;100822.50;5132909;27;1041;-63
2021/05/07 05:15:31;;;;;;;;;;;;;;;20.76;66.95;100819.00;5136996;27;1247;-63
2021/05/07 05:18:32;;;;;;;;;;;;;;;20.76;66.92;100840.16;5135921;27;1901;-64
2021/05/07 05:21:16;;;;;;;;;;;;;;;20.75;66.61;100847.25;5135572;27;1286;-65
2021/05/07 05:24:03;;;;;;;;;;;;;;;20.75;66.88;100857.84;5136000;27;911;-64
2021/05/07 05:26:48;;;;;;;;;;;;;;;20.75;66.49;100864.94;5135794;27;1350;-63
2021/05/07 05:29:32;;;;;;;;;;;;;;;20.74;66.38;100869.38;5135236;27;1044;-64
2021/05/07 05:32:17;;;;;;;;;;;;;;;20.74;66.55;100864.06;5135151;27;702;-63
2021/05/07 05:35:03;;;;;;;;;;;;;;;20.73;66.51;100868.50;5135792;27;1314;-64
2021/05/07 05:37:48;;;;;;;;;;;;;;;20.73;66.33;100866.84;5135432;27;1158;-63
2021/05/07 05:40:33;;;;;;;;;;;;;;;20.72;66.21;100868.63;5135045;27;1958;-63
2021/05/07 05:43:17;;;;;;;;;;;;;;;20.77;66.99;100878.91;5135501;27;1151;-64
2021/05/07 05:46:02;;;;;;;;;;;;;;;20.75;66.46;100886.97;5135397;27;1283;-64
2021/05/07 05:48:46;;;;;;;;;;;;;;;20.75;66.62;100886.09;5137089;27;1554;-65
2021/05/07 05:51:31;;;;;;;;;;;;;;;20.76;66.82;100893.97;5146559;27;1291;-64
2021/05/07 05:54:16;;;;;;;;;;;;;;;20.77;66.68;100889.50;5155628;27;961;-61
2021/05/07 05:57:01;;;;;;;;;;;;;;;20.82;67.10;100890.94;5156020;27;632;-64
2021/05/07 05:59:50;;;;;;;;;;;;;;;20.79;66.85;100893.78;5140132;27;2016;-64
2021/05/07 06:02:34;;;;;;;;;;;;;;;20.82;66.70;100898.88;5156915;27;568;-65
2021/05/07 06:05:20;;;;;;;;;;;;;;;20.79;66.76;100898.22;5156629;27;1392;-65
2021/05/07 06:08:05;;;;;;;;;;;;;;;20.76;66.46;100887.81;5156694;27;1054;-64
2021/05/07 06:10:50;;;;;;;;;;;;;;;20.72;66.90;100881.84;5156382;27;1279;-65
2021/05/07 06:13:34;;;;;;;;;;;;;;;20.71;66.63;100896.88;5156897;27;1091;-65
2021/05/07 06:16:19;;;;;;;;;;;;;;;20.71;66.73;100911.91;5156632;27;1290;-64
2021/05/07 06:19:05;;;;;;;;;;;;;;;20.71;66.66;100911.91;5157107;27;1909;-63
2021/05/07 06:21:50;;;;;;;;;;;;;;;20.70;66.62;100921.66;5157051;27;1409;-63
2021/05/07 06:24:35;;;;;;;;;;;;;;;20.70;66.56;100923.47;5153943;27;1092;-62
2021/05/07 06:27:20;;;;;;;;;;;;;;;20.69;66.49;100929.69;5153609;27;666;-65
2021/05/07 06:30:05;;;;;;;;;;;;;;;20.69;66.18;100937.63;5153766;27;1306;-65
2021/05/07 06:32:53;;;;;;;;;;;;;;;20.69;66.06;100940.28;5153084;27;1046;-64
2021/05/07 06:35:38;;;;;;;;;;;;;;;20.71;66.73;100944.53;5152169;27;1239;-64
2021/05/07 06:38:23;;;;;;;;;;;;;;;20.71;66.23;100933.09;5152088;27;1978;-66
2021/05/07 06:41:07;;;;;;;;;;;;;;;20.70;66.48;100931.41;5152249;27;1365;-64
2021/05/07 06:43:52;;;;;;;;;;;;;;;20.71;66.55;100933.09;5144642;27;1591;-65
2021/05/07 06:46:37;;;;;;;;;;;;;;;20.71;66.50;100933.09;5149707;27;1393;-66
2021/05/07 06:49:22;;;;;;;;;;;;;;;20.69;64.45;100940.28;5144844;27;1636;-65
2021/05/07 06:52:07;;;;;;;;;;;;;;;20.64;63.08;100947.63;5134781;27;659;-66
2021/05/07 06:54:52;;;;;;;;;;;;;;;20.66;63.84;100935.19;5131117;27;1239;-68
2021/05/07 06:57:37;;;;;;;;;;;;;;;20.17;62.52;100943.41;5130817;27;718;-67
2021/05/07 07:00:22;;;;;;;;;;;;;;;19.99;62.46;100946.31;5128648;27;1909;-67
2021/05/07 07:03:07;;;;;;;;;;;;;;;19.88;61.39;100939.00;5131613;27;1099;-68
2021/05/07 07:05:52;;;;;;;;;;;;;;;19.79;60.78;100947.47;5149998;27;1933;-67
2021/05/07 07:08:37;;;;;;;;;;;;;;;19.87;60.92;100954.94;5139028;27;1101;-66
2021/05/07 07:11:22;;;;;;;;;;;;;;;19.86;60.90;100953.25;5129083;27;1373;-67
2021/05/07 07:14:07;;;;;;;;;;;;;;;19.81;60.43;100960.59;5128444;27;1093;-67
2021/05/07 07:16:52;;;;;;;;;;;;;;;19.77;60.60;100957.28;5128823;27;1301;-67
2021/05/07 07:19:37;;;;;;;;;;;;;;;19.79;60.19;100962.50;5128991;27;1897;-68
2021/05/07 07:22:23;;;;;;;;;;;;;;;19.87;59.84;100961.09;5133580;27;876;-67
2021/05/07 07:25:10;;;;;;;;;;;;;;;19.83;59.60;100961.34;5147686;27;1405;-67
2021/05/07 07:27:58;;;;;;;;;;;;;;;19.90;59.83;100966.22;5149742;27;930;-69
2021/05/07 07:30:43;;;;;;;;;;;;;;;20.09;59.56;100960.69;5148381;27;1549;-65
2021/05/07 07:33:28;;;;;;;;;;;;;;;20.36;59.89;100963.50;5134424;27;1140;-67
2021/05/07 07:36:13;;;;;;;;;;;;;;;20.39;59.22;100966.84;5148110;27;1277;-67
2021/05/07 07:38:58;;;;;;;;;;;;;;;20.43;59.45;100970.13;5149199;27;2000;-68
2021/05/07 07:41:48;;;;;;;;;;;;;;;20.44;59.96;100970.03;5132176;27;1350;-67
2021/05/07 07:44:32;;;;;;;;;;;;;;;20.46;60.48;100975.22;5131982;27;1311;-68
2021/05/07 07:47:17;;;;;;;;;;;;;;;20.48;60.50;100982.16;5136174;27;1513;-68
2021/05/07 07:50:04;;;;;;;;;;;;;;;20.59;59.88;100981.50;5136653;27;1509;-70
2021/05/07 07:52:49;;;;;;;;;;;;;;;20.62;59.99;100987.44;5115206;27;1560;-69
2021/05/07 07:55:34;;;;;;;;;;;;;;;20.61;60.03;100995.47;5113520;27;1378;-68
2021/05/07 07:58:19;;;;;;;;;;;;;;;20.63;61.37;100999.75;5135843;27;1003;-70
2021/05/07 08:01:03;;;;;;;;;;;;;;;20.68;61.83;101002.97;5118413;27;1512;-70
2021/05/07 08:03:49;;;;;;;;;;;;;;;20.68;60.91;101007.41;5144449;27;1193;-70
2021/05/07 08:06:34;;;;;;;;;;;;;;;20.67;61.18;101011.84;5150010;27;1252;-69
2021/05/07 08:09:19;;;;;;;;;;;;;;;20.67;61.68;101018.94;5129530;27;995;-69
2021/05/07 08:12:05;;;;;;;;;;;;;;;20.67;61.25;101016.31;5129281;27;1031;-69
2021/05/07 08:14:49;;;;;;;;;;;;;;;20.67;61.34;101016.31;5113515;27;1404;-69
2021/05/07 08:17:34;;;;;;;;;;;;;;;20.68;61.54;101017.97;5140483;27;1441;-68
2021/05/07 08:20:21;;;;;;;;;;;;;;;20.69;61.93;101025.84;5150121;27;1905;-69
2021/05/07 08:23:07;;;;;;;;;;;;;;;20.73;62.59;101021.22;5149643;27;998;-70
2021/05/07 08:25:52;;;;;;;;;;;;;;;20.78;62.68;101024.44;5134304;27;1351;-69
2021/05/07 08:28:37;;;;;;;;;;;;;;;20.82;61.92;101027.75;5142498;27;1358;-68
2021/05/07 08:31:22;;;;;;;;;;;;;;;20.79;62.10;101028.78;5129015;27;1276;-68
2021/05/07 08:34:06;;;;;;;;;;;;;;;20.80;62.48;101033.13;5129167;27;1091;-70
2021/05/07 08:36:51;;;;;;;;;;;;;;;20.80;62.66;101030.47;5129151;27;1219;-70
2021/05/07 08:39:37;;;;;;;;;;;;;;;20.81;62.74;101034.84;5113129;27;1906;-72
2021/05/07 08:42:22;;;;;;;;;;;;;;;20.81;62.96;101028.69;5113056;27;984;-68
2021/05/07 08:45:07;;;;;;;;;;;;;;;20.88;62.87;101041.47;5128203;27;1330;-69
2021/05/07 08:47:53;;;;;;;;;;;;;;;20.84;63.23;101039.94;5127951;27;1449;-70
2021/05/07 08:50:38;;;;;;;;;;;;;;;20.86;62.48;101043.34;5128324;27;1512;-67
2021/05/07 08:53:23;;;;;;;;;;;;;;;20.88;62.90;101046.75;5128373;27;1139;-69
2021/05/07 08:56:08;;;;;;;;;;;;;;;20.93;62.99;101036.72;5112911;27;1294;-68
2021/05/07 08:58:53;;;;;;;;;;;;;;;20.95;62.55;101042.78;5112491;27;1984;-70
2021/05/07 09:01:45;;;;;;;;;;;;;;;20.91;62.80;101051.88;5127924;27;1370;-66
2021/05/07 09:04:30;;;;;;;;;;;;;;;20.91;63.01;101051.00;5113093;27;1032;-67
2021/05/07 09:07:15;;;;;;;;;;;;;;;20.91;63.27;101051.88;5127612;27;976;-68
2021/05/07 09:10:02;;;;;;;;;;;;;;;20.91;63.01;101051.00;5128516;27;1195;-66
2021/05/07 09:12:54;;;;;;;;;;;;;;;20.91;63.08;101051.00;5127944;27;1119;-67
2021/05/07 09:15:50;;;;;;;;;;;;;;;21.02;63.49;101057.34;5127930;28;1325;-67
2021/05/07 09:18:44;;;;;;;;;;;;;;;21.01;62.89;101054.78;5127887;27;2027;-69
2021/05/07 09:21:28;;;;;;;;;;;;;;;20.97;63.57;101059.44;5128014;28;1317;-69
2021/05/07 09:24:14;;;;;;;;;;;;;;;21.03;63.42;101056.41;5127962;27;1050;-67
2021/05/07 09:26:59;;;;;;;;;;;;;;;21.03;64.03;101058.22;5128188;28;1386;-66
2021/05/07 09:29:44;;;;;;;;;;;;;;;21.10;63.77;101063.06;5128311;28;1306;-69
2021/05/07 09:32:30;;;;;;;;;;;;;;;21.08;63.31;101066.72;5116002;27;1034;-65
2021/05/07 09:35:15;;;;;;;;;;;;;;;21.02;62.49;101078.53;5148754;27;1144;-65
2021/05/07 09:38:05;;;;;;;;;;;;;;;21.00;62.20;101071.63;5132688;27;1044;-67
2021/05/07 09:40:50;;;;;;;;;;;;;;;21.00;62.57;101077.78;5148656;27;1977;-64
2021/05/07 09:43:35;;;;;;;;;;;;;;;20.96;61.90;101070.97;5132844;27;1036;-66
2021/05/07 09:46:30;;;;;;;;;;;;;;;20.93;61.67;101079.09;5132885;27;1267;-66
2021/05/07 09:49:25;;;;;;;;;;;;;;;20.94;62.21;101083.47;5148264;27;1485;-67
2021/05/07 09:52:10;;;;;;;;;;;;;;;20.94;62.00;101082.59;5149102;27;983;-66
2021/05/07 09:54:54;;;;;;;;;;;;;;;20.96;62.86;101084.22;5148839;27;1235;-65
2021/05/07 09:57:40;;;;;;;;;;;;;;;20.95;62.81;101090.44;5143638;27;1089;-64
2021/05/07 10:00:25;;;;;;;;;;;;;;;20.98;63.37;101090.25;5131674;27;1906;-66
2021/05/07 10:03:09;;;;;;;;;;;;;;;20.98;63.28;101081.44;5133051;27;1085;-66
2021/05/07 10:05:54;;;;;;;;;;;;;;;20.96;64.00;101084.22;5132705;27;1211;-66
2021/05/07 10:08:45;;;;;;;;;;;;;;;20.96;63.81;101091.31;5146019;27;1103;-66
2021/05/07 10:11:36;;;;;;;;;;;;;;;20.93;64.01;101087.03;5138313;27;1271;-67
2021/05/07 10:14:21;;;;;;;;;;;;;;;20.95;64.37;101087.78;5133733;27;967;-66
2021/05/07 10:17:10;;;;;;;;;;;;;;;20.99;64.04;101091.97;5132292;27;1031;-67
2021/05/07 10:19:55;;;;;;;;;;;;;;;20.99;64.25;101097.25;5132781;27;1980;-69
2021/05/07 10:22:41;;;;;;;;;;;;;;;21.03;64.24;101097.94;5132067;27;934;-66
2021/05/07 10:25:27;;;;;;;;;;;;;;;21.06;64.14;101095.97;5132148;27;1366;-68
2021/05/07 10:28:16;;;;;;;;;;;;;;;21.08;64.29;101099.38;5132471;27;1133;-67
2021/05/07 10:31:05;;;;;;;;;;;;;;;21.03;64.28;101101.44;5132222;27;1260;-67
2021/05/07 10:33:58;;;;;;;;;;;;;;;21.00;64.41;101096.34;5131505;27;1117;-68
2021/05/07 10:36:49;;;;;;;;;;;;;;;20.98;64.57;101098.19;5132400;27;1334;-67
2021/05/07 10:39:33;;;;;;;;;;;;;;;20.98;64.56;101098.19;5131786;27;2000;-67
2021/05/07 10:42:18;;;;;;;;;;;;;;;20.97;64.72;101103.59;5133983;27;1007;-67
2021/05/07 10:45:04;;;;;;;;;;;;;;;20.99;64.55;101094.63;5153206;27;1227;-67
2021/05/07 10:47:49;;;;;;;;;;;;;;;21.01;64.48;101097.16;5152750;27;1409;-66
2021/05/07 10:50:38;;;;;;;;;;;;;;;20.99;64.52;101091.97;5153160;27;1362;-66
2021/05/07 10:53:24;;;;;;;;;;;;;;;21.00;64.69;101093.69;5137892;27;1036;-68
2021/05/07 10:56:13;;;;;;;;;;;;;;;21.02;64.42;101091.78;5130934;27;1266;-66
2021/05/07 10:58:58;;;;;;;;;;;;;;;21.00;64.60;101087.53;5138505;27;1934;-63
2021/05/07 11:01:55;;;;;;;;;;;;;;;21.01;64.54;101100.66;5135420;27;1571;-66
2021/05/07 11:04:40;;;;;;;;;;;;;;;21.04;64.53;101103.13;5142703;27;1533;-64
2021/05/07 11:07:30;;;;;;;;;;;;;;;21.04;64.66;101094.31;5147836;27;1353;-66
2021/05/07 11:10:14;;;;;;;;;;;;;;;21.04;64.69;101097.81;5128713;27;1271;-62
2021/05/07 11:12:59;;;;;;;;;;;;;;;21.07;64.43;101088.84;5129397;27;1131;-68
2021/05/07 11:15:48;;;;;;;;;;;;;;;21.07;64.49;101097.63;5130405;27;1750;-66
2021/05/07 11:18:33;;;;;;;;;;;;;;;21.06;64.59;101098.59;5113446;27;1212;-66
2021/05/07 11:21:19;;;;;;;;;;;;;;;21.08;64.66;101094.09;5114948;27;1331;-68
2021/05/07 11:24:21;;;;;;;;;;;;;;;21.08;64.72;101091.44;5115196;27;1391;-65
2021/05/07 11:27:18;;;;;;;;;;;;;;;21.08;64.76;101087.91;5147288;27;675;-67
2021/05/07 11:30:06;;;;;;;;;;;;;;;21.08;64.49;101091.44;5131730;27;1307;-67
2021/05/07 11:32:51;;;;;;;;;;;;;;;21.09;64.55;101087.84;5129625;27;1490;-66
2021/05/07 11:35:35;;;;;;;;;;;;;;;21.09;64.47;101087.00;5130283;27;1264;-68
2021/05/07 11:38:26;;;;;;;;;;;;;;;21.10;65.01;101088.69;5128789;27;980;-68
2021/05/07 11:41:29;;;;;;;;;;;;;;;21.11;64.83;101093.91;5128926;27;1275;-68
2021/05/07 11:44:18;;;;;;;;;;;;;;;21.11;64.76;101096.56;5128825;27;976;-67
2021/05/07 11:47:06;;;;;;;;;;;;;;;21.10;65.01;101092.19;5129101;27;667;-65
2021/05/07 11:49:52;;;;;;;;;;;;;;;21.11;65.01;101091.25;5137560;27;1278;-65
2021/05/07 11:52:38;;;;;;;;;;;;;;;21.14;64.96;101095.50;5118828;27;1267;-64
2021/05/07 11:55:28;;;;;;;;;;;;;;;21.12;65.12;101102.69;5128622;27;1315;-67
2021/05/07 11:58:12;;;;;;;;;;;;;;;21.12;64.86;101098.25;5115836;27;1124;-65
2021/05/07 12:00:57;;;;;;;;;;;;;;;21.15;65.04;101113.97;5135295;27;1901;-64
2021/05/07 12:03:42;;;;;;;;;;;;;;;21.13;65.26;101112.34;5140310;27;1161;-66
2021/05/07 12:06:29;;;;;;;;;;;;;;;21.11;64.87;101123.03;5128755;27;1315;-63
2021/05/07 12:09:14;;;;;;;;;;;;;;;21.14;64.76;101096.38;5128518;27;1361;-67
2021/05/07 12:11:59;;;;;;;;;;;;;;;21.14;64.41;101101.66;5112995;27;1271;-68
2021/05/07 12:14:51;;;;;;;;;;;;;;;21.14;64.56;101101.66;5129588;27;1306;-68
2021/05/07 12:18:03;;;;;;;;;;;;;;;21.16;64.58;101105.06;5134193;27;624;-70
2021/05/07 12:20:49;;;;;;;;;;;;;;;21.26;65.02;101097.41;5149620;27;1906;-65
2021/05/07 12:23:42;;;;;;;;;;;;;;;21.24;65.27;101102.81;5130409;27;1184;-66
2021/05/07 12:26:27;;;;;;;;;;;;;;;21.28;64.80;101098.13;5129237;27;1401;-67
2021/05/07 12:29:11;;;;;;;;;;;;;;;21.34;64.24;101096.94;5129277;27;972;-62
2021/05/07 12:32:00;;;;;;;;;;;;;;;21.36;64.67;101101.19;5113689;27;1428;-61
2021/05/07 12:34:53;;;;;;;;;;;;;;;21.39;64.67;101106.28;5129599;27;1295;-62
2021/05/07 12:37:38;;;;;;;;;;;;;;;21.44;65.03;101098.03;5129007;27;707;-64
2021/05/07 12:40:23;;;;;;;;;;;;;;;21.45;65.00;101097.97;5127709;27;1969;-62
2021/05/07 12:43:08;;;;;;;;;;;;;;;21.43;65.10;101093.72;5128414;27;1060;-65
2021/05/07 12:45:53;;;;;;;;;;;;;;;21.48;65.42;101107.53;5128547;27;1354;-67
2021/05/07 12:48:59;;;;;;;;;;;;;;;21.45;65.62;101102.41;5128328;27;1075;-64
2021/05/07 12:51:44;;;;;;;;;;;;;;;21.40;65.83;101099.22;5128505;27;1286;-67
2021/05/07 12:54:29;;;;;;;;;;;;;;;21.48;65.19;101108.38;5136347;27;1180;-64
2021/05/07 12:57:14;;;;;;;;;;;;;;;21.42;66.65;101105.25;5133317;27;1168;-66
2021/05/07 12:59:59;;;;;;;;;;;;;;;21.33;67.22;101114.63;5128503;27;1984;-67
2021/05/07 13:02:44;;;;;;;;;;;;;;;21.35;66.58;101104.78;5137042;27;1604;-69
2021/05/07 13:05:29;;;;;;;;;;;;;;;21.30;67.68;101103.38;5127956;27;1386;-67
2021/05/07 13:08:13;;;;;;;;;;;;;;;21.29;66.69;101099.84;5127499;27;1148;-68
2021/05/07 13:10:59;;;;;;;;;;;;;;;21.28;67.02;101108.75;5128058;27;1338;-67
2021/05/07 13:13:44;;;;;;;;;;;;;;;21.30;67.66;101100.72;5127527;28;1122;-68
2021/05/07 13:16:30;;;;;;;;;;;;;;;21.27;67.45;101092.97;5127042;28;1287;-68
2021/05/07 13:19:14;;;;;;;;;;;;;;;21.28;67.91;101110.56;5129280;28;1980;-70
2021/05/07 13:21:59;;;;;;;;;;;;;;;21.29;66.93;101094.56;5129116;28;1409;-68
2021/05/07 13:24:43;;;;;;;;;;;;;;;21.30;66.66;101093.63;5129546;28;1347;-67
2021/05/07 13:27:28;;;;;;;;;;;;;;;21.29;67.28;101093.69;5129385;28;675;-66
2021/05/07 13:30:14;;;;;;;;;;;;;;;21.29;67.74;101101.66;5129722;28;1373;-66
2021/05/07 13:32:59;;;;;;;;;;;;;;;21.27;67.30;101106.19;5130003;27;937;-68
2021/05/07 13:35:44;;;;;;;;;;;;;;;21.29;67.38;101102.50;5133956;27;1267;-68
2021/05/07 13:38:29;;;;;;;;;;;;;;;21.29;67.12;101096.34;5132524;27;1104;-66
2021/05/07 13:41:14;;;;;;;;;;;;;;;21.29;67.07;101099.84;5137629;27;1957;-66
2021/05/07 13:43:58;;;;;;;;;;;;;;;21.27;67.54;101096.47;5134679;27;1703;-67
2021/05/07 13:46:43;;;;;;;;;;;;;;;21.30;67.66;101101.56;5116701;27;1382;-67
2021/05/07 13:49:28;;;;;;;;;;;;;;;21.32;66.97;101097.00;5124135;27;1712;-68
2021/05/07 13:52:13;;;;;;;;;;;;;;;21.30;67.21;101098.06;5132122;27;683;-67
2021/05/07 13:54:58;;;;;;;;;;;;;;;21.30;67.28;101100.72;5132530;27;1304;-69
2021/05/07 13:57:43;;;;;;;;;;;;;;;21.29;66.95;101099.00;5107776;28;1707;-68
2021/05/07 14:00:28;;;;;;;;;;;;;;;21.29;67.29;101096.34;5111440;28;1981;-68
2021/05/07 14:03:12;;;;;;;;;;;;;;;21.31;66.94;101097.13;5111673;28;1013;-69
2021/05/07 14:05:58;;;;;;;;;;;;;;;21.30;67.01;101090.97;5111058;28;1268;-68
2021/05/07 14:08:42;;;;;;;;;;;;;;;21.33;66.57;101089.94;5111738;28;1070;-69
2021/05/07 14:11:27;;;;;;;;;;;;;;;21.32;67.09;101089.06;5111258;28;1212;-67
2021/05/07 14:14:12;;;;;;;;;;;;;;;21.31;67.05;101092.66;5110969;28;1084;-67
2021/05/07 14:16:57;;;;;;;;;;;;;;;21.43;65.76;101096.38;5118331;27;1490;-68
2021/05/07 14:19:42;;;;;;;;;;;;;;;21.42;66.62;101098.16;5094425;28;1910;-69
2021/05/07 14:22:27;;;;;;;;;;;;;;;21.32;66.00;101093.50;5097760;27;1546;-68
2021/05/07 14:25:12;;;;;;;;;;;;;;;21.26;65.42;101094.75;5113702;27;1319;-68